Terminal Aerodrome Forecast
Issued by NWS

Home | Current Version | Previous Version | Text Only | Print | Product List | Glossary On
Versions: 1 2 3 4 5 6 7 8 9 10 11 12 13 14 15 16 17 18 19 20 21 22 23 24 25 26 27 28 29 30 31 32 33 34 35
000
FTUS46 KOTX 201739
TAFSFF
TAF
KSFF 201739Z 2018/2118 10008KT P6SM FEW150 SCT200
     FM202000 20008KT P6SM FEW150 BKN200
     FM210300 21007KT P6SM FEW050 BKN080 OVC120
     FM210600 20004KT P6SM -RA SCT025 BKN040 OVC060
     FM211300 21004KT P6SM VCSH OVC030=

USA.gov is the U.S. government's official web portal to all federal, state and local government web resources and services.